^^
Station Historical Data
Daily Summary for August 22, 2017 Units:  English    Metric   Both
« Previous Day
Next Day »
Daily Weekly Monthly Yearly Custom
  High: Low: Average:
Temperature: 88.8 °F 72.0 °F 80.4 °F
Dew Point: 77.3 °F 70.4 °F 72.6 °F
Humidity: 95% 59% 78%
Wind Speed: 9.0mph 0.0mph 4.1mph
Wind Gust: 21.0mph - -
Wind- - SSW
Pressure: 30.09 in 29.74 in -
Precipitation: 0.10 in    
Historical Graphs
 
 
Tabular Data for August 22, 2017
Time Temperature Dew Point Pressure Wind Wind Speed Wind Gust Humidity Rainfall Rate (Hourly) Conditions
00:00 75.7 °F 70.5 °F 30.09 in SSW 1.0 mph 7.0 mph 84% 0.00 in CLR
00:15 75.6 °F 70.8 °F 30.09 in SSW 3.0 mph 7.0 mph 85% 0.00 in CLR
00:30 75.4 °F 70.6 °F 30.09 in South 2.0 mph 6.0 mph 85% 0.00 in CLR
00:45 75.2 °F 70.7 °F 30.08 in South 2.0 mph 5.0 mph 86% 0.00 in CLR
01:00 74.9 °F 70.4 °F 30.08 in South 3.0 mph 5.0 mph 86% 0.00 in CLR
02:15 74.3 °F 70.8 °F 30.06 in Calm   6.0 mph 89% 0.00 in CLR
02:30 74.1 °F 70.7 °F 30.06 in Calm   5.0 mph 89% 0.00 in CLR
02:45 73.9 °F 70.8 °F 30.06 in South 1.0 mph 4.0 mph 90% 0.00 in CLR
03:00 73.5 °F 70.4 °F 30.06 in SSW 1.0 mph 3.0 mph 90% 0.00 in CLR
03:15 73.4 °F 70.6 °F 30.05 in SSW 1.0 mph 4.0 mph 91% 0.00 in CLR
03:30 73.3 °F 70.5 °F 30.05 in SW 1.0 mph 5.0 mph 91% 0.00 in CLR
03:45 73.3 °F 70.8 °F 30.04 in SSW 1.0 mph 4.0 mph 92% 0.00 in CLR
04:00 73.2 °F 70.7 °F 30.04 in SW 2.0 mph 4.0 mph 92% 0.00 in CLR
04:15 73.1 °F 70.6 °F 30.03 in Calm   3.0 mph 92% 0.00 in CLR
04:30 72.8 °F 70.7 °F 30.03 in SW 1.0 mph 3.0 mph 93% 0.00 in CLR
04:45 72.9 °F 70.8 °F 30.03 in SW 2.0 mph 7.0 mph 93% 0.00 in CLR
05:00 72.9 °F 70.8 °F 30.03 in SSW 1.0 mph 5.0 mph 93% 0.00 in CLR
05:15 72.7 °F 70.6 °F 30.03 in SW 2.0 mph 5.0 mph 93% 0.00 in FEW
05:30 72.5 °F 70.7 °F 30.03 in Calm   5.0 mph 94% 0.00 in FEW
05:45 72.4 °F 70.5 °F 30.02 in SSW 1.0 mph 4.0 mph 94% 0.00 in FEW
06:00 72.2 °F 70.4 °F 30.02 in Calm   4.0 mph 94% 0.00 in FEW
06:15 72.0 °F 70.5 °F 30.03 in SSW 1.0 mph 5.0 mph 95% 0.00 in CLR
06:30 72.2 °F 70.7 °F 30.03 in South 3.0 mph 5.0 mph 95% 0.00 in CLR
06:45 72.2 °F 70.7 °F 30.03 in Calm   5.0 mph 95% 0.00 in CLR
07:00 72.2 °F 70.7 °F 30.02 in SW 1.0 mph 3.0 mph 95% 0.00 in CLR
07:15 72.4 °F 70.9 °F 30.02 in South 1.0 mph 3.0 mph 95% 0.00 in FEW
07:30 72.6 °F 70.8 °F 30.02 in South 1.0 mph 4.0 mph 94% 0.00 in FEW
07:45 73.0 °F 70.8 °F 30.02 in South 1.0 mph 5.0 mph 93% 0.00 in FEW
08:00 73.5 °F 71.0 °F 30.02 in SSW 3.0 mph 9.0 mph 92% 0.00 in FEW
08:15 74.0 °F 70.9 °F 30.02 in SSE 3.0 mph 7.0 mph 90% 0.00 in CLR
08:30 74.8 °F 71.3 °F 30.01 in SW 2.0 mph 12.0 mph 89% 0.00 in CLR
08:45 75.6 °F 71.8 °F 30.01 in SSW 5.0 mph 12.0 mph 88% 0.00 in CLR
09:00 76.4 °F 72.2 °F 30.00 in SW 5.0 mph 9.0 mph 87% 0.00 in CLR
09:15 77.0 °F 72.5 °F 30.00 in SSW 3.0 mph 9.0 mph 86% 0.00 in FEW
09:30 77.5 °F 72.6 °F 30.00 in SSW 3.0 mph 8.0 mph 85% 0.00 in FEW
09:45 77.9 °F 73.0 °F 30.00 in SSW 5.0 mph 10.0 mph 85% 0.00 in FEW
10:00 78.7 °F 73.1 °F 29.99 in SW 3.0 mph 9.0 mph 83% 0.00 in FEW
10:15 79.5 °F 73.8 °F 29.99 in South 1.0 mph 9.0 mph 83% 0.00 in FEW
10:30 79.9 °F 73.5 °F 29.99 in South 5.0 mph 8.0 mph 81% 0.00 in FEW
10:45 80.8 °F 73.7 °F 29.98 in SSW 3.0 mph 7.0 mph 79% 0.00 in FEW
11:00 81.4 °F 74.3 °F 29.98 in South 3.0 mph 10.0 mph 79% 0.00 in FEW
11:15 82.3 °F 74.4 °F 29.98 in SSW 3.0 mph 8.0 mph 77% 0.00 in FEW
11:30 82.3 °F 74.4 °F 29.98 in SSW 6.0 mph 12.0 mph 77% 0.00 in FEW
11:45 82.7 °F 74.4 °F 29.97 in SSW 6.0 mph 12.0 mph 76% 0.00 in FEW
12:00 82.7 °F 74.3 °F 29.96 in SSW 5.0 mph 12.0 mph 76% 0.00 in FEW
12:15 83.8 °F 74.6 °F 29.96 in South 3.0 mph 12.0 mph 74% 0.00 in SCT
12:30 83.9 °F 74.7 °F 29.95 in SSW 7.0 mph 16.0 mph 74% 0.00 in SCT
12:45 84.1 °F 74.1 °F 29.94 in SSW 5.0 mph 14.0 mph 72% 0.00 in SCT
13:00 85.1 °F 74.2 °F 29.94 in SSW 6.0 mph 10.0 mph 70% 0.00 in SCT
13:15 86.0 °F 74.2 °F 29.93 in SW 6.0 mph 10.0 mph 68% 0.00 in FEW
13:30 86.5 °F 74.7 °F 29.92 in South 3.0 mph 10.0 mph 68% 0.00 in FEW
13:45 87.5 °F 74.7 °F 29.92 in SSW 7.0 mph 10.0 mph 66% 0.00 in FEW
14:00 88.0 °F 74.3 °F 29.91 in SW 7.0 mph 12.0 mph 64% 0.00 in FEW
14:15 87.9 °F 74.2 °F 29.90 in SSW 7.0 mph 12.0 mph 64% 0.00 in FEW
14:30 88.0 °F 74.3 °F 29.89 in SSW 5.0 mph 12.0 mph 64% 0.00 in FEW
14:45 88.2 °F 74.5 °F 29.88 in South 8.0 mph 14.0 mph 64% 0.00 in FEW
15:00 88.6 °F 74.4 °F 29.87 in SSW 6.0 mph 17.0 mph 63% 0.00 in FEW
15:15 88.2 °F 74.0 °F 29.85 in SSW 7.0 mph 16.0 mph 63% 0.00 in FEW
15:30 88.2 °F 74.0 °F 29.85 in SW 8.0 mph 16.0 mph 63% 0.00 in FEW
15:45 88.3 °F 74.1 °F 29.84 in SW 6.0 mph 21.0 mph 63% 0.00 in FEW
16:00 88.6 °F 75.3 °F 29.83 in SW 7.0 mph 15.0 mph 65% 0.00 in FEW
16:15 87.2 °F 76.2 °F 29.83 in SW 5.0 mph 13.0 mph 70% 0.00 in SCT
16:30 87.7 °F 77.1 °F 29.82 in SSW 3.0 mph 9.0 mph 71% 0.00 in SCT
16:45 87.9 °F 77.3 °F 29.81 in SW 3.0 mph 10.0 mph 71% 0.00 in SCT
17:00 88.8 °F 73.6 °F 29.81 in SSW 7.0 mph 14.0 mph 61% 0.00 in SCT
17:15 88.7 °F 73.0 °F 29.80 in South 6.0 mph 14.0 mph 60% 0.00 in FEW
17:30 88.6 °F 72.9 °F 29.79 in SSW 8.0 mph 16.0 mph 60% 0.00 in FEW
17:45 88.8 °F 72.6 °F 29.79 in SW 6.0 mph 12.0 mph 59% 0.00 in FEW
18:00 87.9 °F 71.8 °F 29.78 in SW 6.0 mph 12.0 mph 59% 0.00 in FEW
18:15 87.4 °F 72.3 °F 29.78 in South 6.0 mph 12.0 mph 61% 0.00 in FEW
18:30 87.0 °F 72.9 °F 29.77 in SSW 2.0 mph 12.0 mph 63% 0.00 in FEW
18:45 86.9 °F 73.3 °F 29.77 in South 3.0 mph 15.0 mph 64% 0.00 in FEW
19:00 86.9 °F 73.2 °F 29.78 in South 6.0 mph 13.0 mph 64% 0.00 in FEW
19:15 86.0 °F 72.8 °F 29.78 in SSW 2.0 mph 12.0 mph 65% 0.00 in FEW
19:30 85.6 °F 72.9 °F 29.78 in SSW 5.0 mph 16.0 mph 66% 0.00 in FEW
19:45 85.1 °F 72.5 °F 29.77 in SSW 7.0 mph 12.0 mph 66% 0.00 in FEW
20:00 84.9 °F 72.7 °F 29.77 in SSW 8.0 mph 14.0 mph 67% 0.00 in FEW
20:15 84.6 °F 72.9 °F 29.76 in South 7.0 mph 13.0 mph 68% 0.00 in FEW
20:30 84.5 °F 73.2 °F 29.76 in SW 5.0 mph 14.0 mph 69% 0.00 in FEW
20:45 84.3 °F 73.4 °F 29.75 in South 5.0 mph 15.0 mph 70% 0.00 in FEW
21:00 83.9 °F 73.5 °F 29.75 in SSW 7.0 mph 13.0 mph 71% 0.00 in FEW
21:15 83.5 °F 73.1 °F 29.74 in South 8.0 mph 20.0 mph 71% 0.00 in SCT
21:30 83.4 °F 72.6 °F 29.75 in SSW 7.0 mph 20.0 mph 70% 0.00 in SCT
21:45 83.1 °F 72.3 °F 29.75 in SSW 8.0 mph 17.0 mph 70% 0.00 in SCT
22:00 82.8 °F 72.0 °F 29.74 in SSW 5.0 mph 15.0 mph 70% 0.00 in SCT
22:15 82.6 °F 71.8 °F 29.74 in SSW 9.0 mph 20.0 mph 70% 0.00 in FEW
22:30 82.3 °F 72.0 °F 29.74 in SSW 6.0 mph 17.0 mph 71% 0.00 in FEW
22:45 80.5 °F 72.6 °F 29.75 in SSW 9.0 mph 17.0 mph 77% 0.01 in RA
23:00 78.0 °F 73.1 °F 29.76 in SSW 7.0 mph 18.0 mph 85% 0.06 in RA
23:15 76.3 °F 72.9 °F 29.76 in SSW 3.0 mph 14.0 mph 89% 0.02 in BKN
23:30 75.6 °F 72.5 °F 29.77 in SW 3.0 mph 10.0 mph 90% 0.00 in BKN
23:45 74.8 °F 71.4 °F 29.78 in SSW 7.0 mph 20.0 mph 89% 0.01 in RA
TarryTown NY Weather
Compliments of Weather Underground - 1.5 mb